Terminal Aerodrome Forecast
Issued by NWS Amarillo, TX

Home | Current Version | Previous Version | Text Only | Print | Product List | Glossary On
Versions: 1 2 3 4 5 6 7 8 9 10 11 12 13 14 15 16
000
FTUS44 KAMA 011100
TAFDHT
TAF
KDHT 011120Z 0112/0212 VRB03KT P6SM BKN070
     FM011800 13008KT P6SM BKN100
     FM020900 32005KT P6SM SCT010 BKN060=

USA.gov is the U.S. government's official web portal to all federal, state and local government web resources and services.